Time;durP1;ratioP1;P1;durP2;ratioP2;P2;SDS_P1;SDS_P2;PMS_P1;PMS_P2;Temp;Humidity;BMP_temperature;BMP_pressure;BME280_temperature;BME280_humidity;BME280_pressure;Samples;Min_cycle;Max_cycle;Signal;HPM_P1;HPM_P2
2022/06/22 00:00:48;;;;;;;3.20;1.43;;;16.80;99.90;;;;;;5058521;28;20543;-79
2022/06/22 00:03:19;;;;;;;5.47;1.70;;;16.80;99.90;;;;;;5057347;28;20502;-79
2022/06/22 00:05:50;;;;;;;4.97;1.87;;;16.80;99.90;;;;;;5082149;22;20490;-83
2022/06/22 00:08:20;;;;;;;4.77;1.87;;;16.70;99.90;;;;;;5061919;28;20479;-82
2022/06/22 00:10:54;;;;;;;5.73;1.57;;;16.70;99.90;;;;;;5063413;28;20509;-83
2022/06/22 00:13:24;;;;;;;5.00;1.80;;;16.70;99.90;;;;;;5063005;28;20479;-83
2022/06/22 00:15:53;;;;;;;3.50;1.53;;;16.60;99.90;;;;;;5058315;28;20507;-82
2022/06/22 00:18:28;;;;;;;4.83;1.73;;;16.50;99.90;;;;;;5044669;28;20838;-82
2022/06/22 00:20:57;;;;;;;6.60;2.00;;;16.50;99.90;;;;;;5047938;28;20550;-82
2022/06/22 00:23:28;;;;;;;2.73;1.37;;;16.40;99.90;;;;;;5043885;28;20512;-82
2022/06/22 00:26:07;;;;;;;3.00;1.20;;;16.40;99.90;;;;;;5043908;28;20515;-82
2022/06/22 00:28:37;;;;;;;3.00;1.47;;;16.30;99.90;;;;;;5042635;28;20451;-82
2022/06/22 00:31:15;;;;;;;4.60;1.87;;;16.30;99.90;;;;;;5043192;28;20942;-82
2022/06/22 00:34:06;;;;;;;2.00;1.13;;;16.20;99.90;;;;;;5042428;28;20531;-83
2022/06/22 00:36:37;;;;;;;3.07;1.33;;;16.20;99.90;;;;;;5046041;28;20500;-83
2022/06/22 00:39:33;;;;;;;3.63;1.33;;;16.10;99.90;;;;;;5042529;28;20455;-82
2022/06/22 00:42:14;;;;;;;5.10;1.67;;;16.10;99.90;;;;;;5042890;28;20455;-83
2022/06/22 00:44:46;;;;;;;3.73;1.60;;;16.10;99.90;;;;;;5042758;28;20476;-83
2022/06/22 00:47:25;;;;;;;5.70;1.40;;;16.00;99.90;;;;;;5045404;28;20904;-83
2022/06/22 00:49:55;;;;;;;6.13;1.57;;;16.00;99.90;;;;;;5043009;28;20490;-83
2022/06/22 00:52:31;;;;;;;5.30;1.60;;;15.90;99.90;;;;;;5045810;28;20483;-82
2022/06/22 00:54:58;;;;;;;4.00;1.80;;;15.90;99.90;;;;;;5041527;28;20465;-83
2022/06/22 00:57:33;;;;;;;6.10;2.30;;;15.80;99.90;;;;;;5043230;28;20476;-83
2022/06/22 01:00:04;;;;;;;3.13;1.50;;;15.80;99.90;;;;;;5051536;28;20484;-82
2022/06/22 01:02:38;;;;;;;4.00;1.60;;;15.70;99.90;;;;;;5041683;28;20583;-82
2022/06/22 01:05:16;;;;;;;7.83;2.10;;;15.70;99.90;;;;;;5040759;28;20484;-83
2022/06/22 01:07:51;;;;;;;6.13;2.17;;;15.60;99.90;;;;;;5034678;28;20496;-82
2022/06/22 01:10:25;;;;;;;4.20;1.90;;;15.60;99.90;;;;;;5041926;28;21011;-83
2022/06/22 01:12:58;;;;;;;2.97;1.67;;;15.60;99.90;;;;;;5041028;28;20475;-82
2022/06/22 01:15:32;;;;;;;3.27;1.77;;;15.70;99.90;;;;;;5049214;28;20450;-82
2022/06/22 01:18:06;;;;;;;3.23;1.47;;;15.60;99.90;;;;;;5041296;28;20493;-83
2022/06/22 01:20:44;;;;;;;4.53;1.73;;;15.60;99.90;;;;;;5040374;28;20535;-82
2022/06/22 01:23:43;;;;;;;4.73;2.07;;;15.60;99.90;;;;;;5039938;28;20893;-82
2022/06/22 01:26:34;;;;;;;3.17;1.90;;;15.50;99.90;;;;;;5042426;28;20489;-83
2022/06/22 01:29:08;;;;;;;4.63;2.00;;;15.50;99.90;;;;;;5023535;28;20453;-82
2022/06/22 01:31:36;;;;;;;3.83;1.73;;;15.40;99.90;;;;;;5048316;28;20490;-83
2022/06/22 01:34:03;;;;;;;4.80;1.63;;;15.40;99.90;;;;;;5040316;28;20495;-82
2022/06/22 01:36:32;;;;;;;3.20;1.87;;;15.40;99.90;;;;;;5051056;28;20507;-82
2022/06/22 01:39:00;;;;;;;4.07;2.10;;;15.30;99.90;;;;;;5040494;28;20559;-83
2022/06/22 01:41:34;;;;;;;3.63;1.80;;;15.30;99.90;;;;;;5040044;28;20441;-83
2022/06/22 01:44:07;;;;;;;4.77;2.13;;;15.30;99.90;;;;;;5022514;28;20871;-83
2022/06/22 01:46:49;;;;;;;4.03;2.10;;;15.20;99.90;;;;;;5047932;28;20996;-82
2022/06/22 01:49:24;;;;;;;4.33;1.57;;;15.20;99.90;;;;;;5038458;28;20840;-82
2022/06/22 01:51:55;;;;;;;3.83;1.90;;;15.20;99.90;;;;;;5058522;28;20520;-83
2022/06/22 01:54:26;;;;;;;5.33;2.23;;;15.20;99.90;;;;;;5039387;28;20465;-82
2022/06/22 01:57:00;;;;;;;3.83;1.87;;;15.10;99.90;;;;;;5053662;28;20618;-82
2022/06/22 01:59:38;;;;;;;3.70;1.40;;;15.10;99.90;;;;;;5039311;28;20459;-82
2022/06/22 02:02:10;;;;;;;3.90;1.97;;;15.10;99.90;;;;;;5031894;28;20893;-83
2022/06/22 02:04:43;;;;;;;4.10;1.70;;;15.10;99.90;;;;;;5040307;28;20476;-82
2022/06/22 02:10:17;;;;;;;4.03;1.73;;;15.10;99.90;;;;;;5029731;28;20498;-82
2022/06/22 02:12:50;;;;;;;4.13;1.63;;;15.10;99.90;;;;;;5038057;28;20446;-82
2022/06/22 02:15:27;;;;;;;3.70;1.93;;;15.10;99.90;;;;;;5039026;28;20459;-82
2022/06/22 02:17:55;;;;;;;4.43;1.60;;;15.00;99.90;;;;;;5040334;28;20455;-83
2022/06/22 02:20:33;;;;;;;5.30;2.17;;;15.00;99.90;;;;;;5043986;28;20524;-83
2022/06/22 02:23:06;;;;;;;4.20;1.87;;;15.00;99.90;;;;;;5043303;28;20475;-83
2022/06/22 02:25:38;;;;;;;3.70;1.70;;;15.00;99.90;;;;;;5044136;28;20803;-83
2022/06/22 02:28:05;;;;;;;3.57;1.63;;;14.90;99.90;;;;;;5042855;28;20494;-83
2022/06/22 02:30:34;;;;;;;4.10;1.83;;;14.90;99.90;;;;;;5043496;28;20484;-83
2022/06/22 02:33:01;;;;;;;6.47;1.93;;;14.80;99.90;;;;;;5044706;28;20520;-82
2022/06/22 02:35:28;;;;;;;4.33;2.00;;;14.80;99.90;;;;;;5040145;28;20500;-82
2022/06/22 02:37:57;;;;;;;7.43;2.50;;;14.80;99.90;;;;;;5049824;28;20904;-82
2022/06/22 02:40:27;;;;;;;10.53;2.50;;;14.80;99.90;;;;;;5052083;28;20536;-81
2022/06/22 02:45:42;;;;;;;7.13;2.20;;;14.80;99.90;;;;;;5048727;28;20486;-83
2022/06/22 02:48:25;;;;;;;3.30;1.83;;;14.80;99.90;;;;;;5049622;28;20479;-82
2022/06/22 02:51:00;;;;;;;7.37;1.73;;;14.70;99.90;;;;;;5039433;28;20511;-82
2022/06/22 02:53:33;;;;;;;5.43;2.17;;;14.80;99.90;;;;;;5019963;28;20921;-81
2022/06/22 02:56:01;;;;;;;5.33;2.50;;;14.70;99.90;;;;;;5035257;28;20472;-82
2022/06/22 02:58:31;;;;;;;4.83;2.17;;;14.70;99.90;;;;;;5044508;28;20485;-82
2022/06/22 03:01:02;;;;;;;2.97;1.57;;;14.70;99.90;;;;;;5042742;28;20454;-83
2022/06/22 03:03:30;;;;;;;6.83;2.20;;;14.70;99.90;;;;;;5043389;28;20488;-82
2022/06/22 03:05:58;;;;;;;3.70;2.17;;;14.70;99.90;;;;;;5043497;28;20484;-83
2022/06/22 03:08:26;;;;;;;6.60;2.37;;;14.60;99.90;;;;;;5044633;28;20526;-83
2022/06/22 03:10:56;;;;;;;4.00;2.13;;;14.60;99.90;;;;;;5043152;28;20506;-83
2022/06/22 03:13:29;;;;;;;5.13;1.80;;;14.60;99.90;;;;;;5042027;28;20473;-82
2022/06/22 03:15:57;;;;;;;4.47;2.30;;;14.60;99.90;;;;;;5039740;28;21002;-82
2022/06/22 03:18:28;;;;;;;3.87;2.23;;;14.60;99.90;;;;;;5041114;28;20898;-82
2022/06/22 03:21:02;;;;;;;4.00;2.27;;;14.60;99.90;;;;;;5039565;28;20476;-82
2022/06/22 03:23:40;;;;;;;4.60;2.17;;;14.60;99.90;;;;;;5056644;28;21082;-83
2022/06/22 03:26:13;;;;;;;3.70;2.70;;;14.70;99.90;;;;;;5047912;28;20475;-82
2022/06/22 03:28:45;;;;;;;4.70;2.20;;;14.70;99.90;;;;;;5054018;28;20459;-83
2022/06/22 03:31:17;;;;;;;3.93;2.20;;;14.80;99.90;;;;;;5038196;28;20531;-81
2022/06/22 03:33:51;;;;;;;5.37;2.03;;;14.80;99.90;;;;;;5041262;28;20779;-82
2022/06/22 03:36:22;;;;;;;4.53;2.40;;;14.80;99.90;;;;;;5023243;28;20561;-82
2022/06/22 03:38:55;;;;;;;5.53;2.00;;;14.80;99.90;;;;;;5023580;28;20903;-82
2022/06/22 03:41:27;;;;;;;7.47;2.27;;;14.80;99.90;;;;;;5033361;28;21006;-83
2022/06/22 03:43:59;;;;;;;7.53;2.57;;;14.80;99.90;;;;;;5039835;28;20480;-82
2022/06/22 03:46:31;;;;;;;4.53;1.97;;;14.70;99.90;;;;;;5042029;28;20497;-83
2022/06/22 03:49:04;;;;;;;6.00;2.47;;;14.70;99.90;;;;;;5043598;28;20491;-83
2022/06/22 03:51:36;;;;;;;6.93;2.00;;;14.70;99.90;;;;;;5042736;28;20965;-82
2022/06/22 03:54:10;;;;;;;4.80;2.20;;;14.70;99.90;;;;;;5043394;28;20536;-84
2022/06/22 03:56:41;;;;;;;3.87;2.60;;;14.70;99.90;;;;;;5060054;28;20501;-81
2022/06/22 03:59:09;;;;;;;3.83;2.10;;;14.70;99.90;;;;;;5047211;28;20458;-80
2022/06/22 04:01:37;;;;;;;5.43;2.43;;;14.80;99.90;;;;;;5061502;28;20446;-81
2022/06/22 04:04:05;;;;;;;3.90;2.17;;;14.80;99.90;;;;;;5056710;28;20449;-80
2022/06/22 04:06:36;;;;;;;4.53;2.37;;;14.80;99.90;;;;;;5045226;28;20992;-80
2022/06/22 04:09:08;;;;;;;6.77;2.60;;;14.90;99.90;;;;;;5051274;28;20483;-80
2022/06/22 04:11:38;;;;;;;4.77;2.40;;;15.00;99.90;;;;;;5046788;28;20489;-79
2022/06/22 04:14:12;;;;;;;6.77;3.30;;;15.00;99.90;;;;;;5057259;28;20492;-82
2022/06/22 04:16:41;;;;;;;3.30;2.30;;;15.10;99.90;;;;;;5048539;28;20547;-82
2022/06/22 04:19:16;;;;;;;4.67;2.30;;;15.20;99.90;;;;;;5046535;28;20968;-82
2022/06/22 04:21:48;;;;;;;5.20;2.47;;;15.30;99.90;;;;;;5046717;28;20452;-82
2022/06/22 04:24:20;;;;;;;5.50;2.60;;;15.30;99.90;;;;;;5048606;28;20495;-82
2022/06/22 04:26:51;;;;;;;3.93;2.43;;;15.40;99.90;;;;;;5047494;28;20472;-81
2022/06/22 04:29:27;;;;;;;6.10;2.70;;;15.50;99.90;;;;;;5054647;28;20448;-83
2022/06/22 04:31:59;;;;;;;6.70;2.87;;;15.50;99.90;;;;;;5047231;28;20500;-82
2022/06/22 04:34:35;;;;;;;8.10;2.53;;;15.60;99.90;;;;;;5048055;28;20525;-82
2022/06/22 04:37:06;;;;;;;4.27;2.90;;;15.70;99.90;;;;;;5047610;28;20477;-82
2022/06/22 04:39:40;;;;;;;7.07;2.93;;;15.80;99.90;;;;;;5046860;28;20510;-81
2022/06/22 04:42:09;;;;;;;6.17;2.80;;;15.80;99.90;;;;;;5056990;28;20456;-83
2022/06/22 04:44:45;;;;;;;7.23;3.37;;;15.90;99.90;;;;;;5065622;28;20500;-82
2022/06/22 04:47:17;;;;;;;3.70;2.23;;;16.00;99.90;;;;;;5045133;28;20502;-83
2022/06/22 04:49:51;;;;;;;4.70;2.60;;;16.10;99.90;;;;;;5048048;28;20543;-83
2022/06/22 04:52:22;;;;;;;4.63;2.43;;;16.20;99.90;;;;;;5058277;28;20482;-83
2022/06/22 04:54:54;;;;;;;5.00;2.87;;;16.20;99.90;;;;;;5064521;28;20479;-85
2022/06/22 04:57:25;;;;;;;4.77;2.90;;;16.30;99.90;;;;;;5058524;28;20476;-82
2022/06/22 04:59:53;;;;;;;6.43;3.27;;;16.40;99.90;;;;;;5063249;28;20468;-82
2022/06/22 05:02:26;;;;;;;3.83;2.70;;;16.40;99.90;;;;;;5049061;28;20448;-84
2022/06/22 05:05:01;;;;;;;4.60;2.90;;;16.40;99.90;;;;;;5053477;28;20456;-83
2022/06/22 05:07:43;;;;;;;5.60;2.77;;;16.40;99.90;;;;;;5053871;28;20545;-81
2022/06/22 05:10:18;;;;;;;6.13;3.27;;;16.50;99.90;;;;;;5050594;28;20543;-84
2022/06/22 05:12:49;;;;;;;3.80;2.30;;;16.50;99.90;;;;;;5040571;28;20569;-83
2022/06/22 05:15:21;;;;;;;5.40;2.90;;;16.50;99.90;;;;;;5033684;28;20472;-82
2022/06/22 05:17:48;;;;;;;5.43;2.90;;;16.50;99.90;;;;;;5039156;28;20508;-85
2022/06/22 05:20:25;;;;;;;5.20;2.73;;;16.50;99.90;;;;;;5043627;28;20492;-82
2022/06/22 05:22:56;;;;;;;4.53;3.00;;;16.60;99.90;;;;;;5038300;28;20445;-82
2022/06/22 05:25:23;;;;;;;4.90;3.03;;;16.70;99.90;;;;;;5038305;28;20459;-83
2022/06/22 05:28:01;;;;;;;8.30;4.10;;;16.70;99.90;;;;;;5038618;28;20499;-82
2022/06/22 05:30:33;;;;;;;6.83;3.60;;;16.80;99.90;;;;;;5039911;28;20490;-82
2022/06/22 05:33:05;;;;;;;8.27;3.03;;;16.90;99.90;;;;;;5039848;28;20485;-83
2022/06/22 05:35:38;;;;;;;6.07;3.07;;;16.80;99.90;;;;;;5044226;28;20471;-84
2022/06/22 05:38:09;;;;;;;6.97;4.10;;;16.80;99.90;;;;;;5058470;28;20448;-84
2022/06/22 05:40:39;;;;;;;4.77;2.73;;;16.90;99.90;;;;;;5046576;28;20533;-83
2022/06/22 05:43:08;;;;;;;5.50;3.10;;;17.00;99.90;;;;;;5036966;28;20469;-84
2022/06/22 05:45:39;;;;;;;9.40;3.80;;;17.10;99.90;;;;;;5039485;28;20504;-85
2022/06/22 05:48:07;;;;;;;6.73;3.03;;;17.20;99.90;;;;;;5039995;28;20464;-83
2022/06/22 05:50:41;;;;;;;4.30;2.80;;;17.30;99.90;;;;;;5055119;28;20438;-80
2022/06/22 05:53:14;;;;;;;8.43;3.07;;;17.30;99.90;;;;;;5049251;28;21058;-81
2022/06/22 05:55:49;;;;;;;6.23;3.53;;;17.40;99.90;;;;;;5041253;28;20610;-79
2022/06/22 05:58:24;;;;;;;4.23;2.30;;;17.50;99.90;;;;;;5044037;28;20487;-78
2022/06/22 06:00:54;;;;;;;4.87;3.07;;;17.60;99.90;;;;;;5052724;28;20456;-82
2022/06/22 06:03:29;;;;;;;4.77;3.63;;;17.70;99.90;;;;;;5051496;28;20465;-79
2022/06/22 06:06:02;;;;;;;4.70;2.90;;;17.80;99.90;;;;;;5053629;28;20482;-81
2022/06/22 06:10:57;;;;;;;6.57;3.07;;;18.00;99.90;;;;;;5084138;22;20501;-83
2022/06/22 06:13:32;;;;;;;3.77;2.93;;;18.10;99.90;;;;;;5079518;28;20500;-81
2022/06/22 06:16:02;;;;;;;7.03;3.33;;;18.20;99.90;;;;;;5081923;28;20458;-84
2022/06/22 06:18:32;;;;;;;5.67;3.20;;;18.20;99.90;;;;;;5063176;28;20546;-82
2022/06/22 06:21:04;;;;;;;6.63;3.53;;;18.30;99.90;;;;;;5049236;28;20789;-81
2022/06/22 06:23:34;;;;;;;6.73;3.20;;;18.40;99.90;;;;;;5052714;28;20497;-83
2022/06/22 06:29:00;;;;;;;5.47;2.77;;;18.50;99.90;;;;;;5054348;28;20449;-80
2022/06/22 06:31:32;;;;;;;6.73;2.67;;;18.50;99.90;;;;;;5049478;28;20488;-83
2022/06/22 06:34:01;;;;;;;6.23;2.93;;;18.60;99.90;;;;;;5051554;28;20542;-81
2022/06/22 06:36:36;;;;;;;5.37;2.73;;;18.60;99.90;;;;;;5049260;28;20832;-82
2022/06/22 06:39:11;;;;;;;4.00;2.27;;;18.70;99.90;;;;;;5055665;28;20569;-82
2022/06/22 06:41:42;;;;;;;7.37;3.10;;;18.80;99.90;;;;;;5057033;28;20457;-84
2022/06/22 06:44:12;;;;;;;5.27;3.17;;;18.90;99.90;;;;;;5058480;28;20480;-82
2022/06/22 06:46:41;;;;;;;6.20;3.10;;;19.00;99.90;;;;;;5059772;28;20453;-82
2022/06/22 06:49:16;;;;;;;4.17;2.47;;;19.00;99.90;;;;;;5067129;28;20478;-84
2022/06/22 06:51:56;;;;;;;5.57;3.20;;;19.10;99.90;;;;;;5061778;28;20510;-82
2022/06/22 06:54:27;;;;;;;5.27;3.60;;;19.10;99.90;;;;;;5057913;28;20459;-84
2022/06/22 06:56:58;;;;;;;8.23;3.30;;;19.20;99.90;;;;;;5051438;28;20459;-83
2022/06/22 06:59:29;;;;;;;11.80;3.97;;;19.40;99.90;;;;;;5049930;28;20514;-83
2022/06/22 07:02:02;;;;;;;5.27;2.37;;;19.40;99.90;;;;;;5057009;28;20806;-82
2022/06/22 07:04:32;;;;;;;5.20;2.40;;;19.50;99.90;;;;;;5055541;28;20456;-82
2022/06/22 07:07:08;;;;;;;5.23;2.97;;;19.60;99.90;;;;;;5054431;28;20455;-81
2022/06/22 07:09:39;;;;;;;6.50;2.70;;;19.70;99.90;;;;;;5050603;28;20487;-83
2022/06/22 07:12:11;;;;;;;7.37;3.00;;;19.80;99.90;;;;;;5054227;28;20514;-83
2022/06/22 07:14:42;;;;;;;8.30;3.00;;;19.90;99.90;;;;;;5055952;28;20460;-81
2022/06/22 07:17:12;;;;;;;4.90;3.10;;;19.90;99.90;;;;;;5055560;28;20515;-81
2022/06/22 07:19:46;;;;;;;5.57;3.40;;;19.90;99.90;;;;;;5049048;28;21629;-81
2022/06/22 07:22:21;;;;;;;5.10;2.50;;;20.00;99.90;;;;;;5057627;28;20570;-82
2022/06/22 07:24:54;;;;;;;5.93;3.03;;;20.00;99.90;;;;;;5058524;28;20865;-81
2022/06/22 07:27:25;;;;;;;4.87;3.00;;;20.10;99.90;;;;;;5045464;28;20460;-83
2022/06/22 07:30:00;;;;;;;5.50;3.20;;;20.20;99.90;;;;;;5041310;28;20559;-83
2022/06/22 07:32:34;;;;;;;6.90;2.97;;;20.30;99.90;;;;;;5049604;28;20490;-82
2022/06/22 07:35:06;;;;;;;4.53;2.93;;;20.40;99.90;;;;;;5055528;28;20455;-82
2022/06/22 07:37:40;;;;;;;6.67;2.70;;;20.60;99.90;;;;;;5056488;28;20475;-82
2022/06/22 07:40:12;;;;;;;5.03;2.90;;;20.80;99.90;;;;;;5053290;28;20543;-84
2022/06/22 07:42:39;;;;;;;5.60;3.03;;;20.90;99.90;;;;;;5057372;28;20483;-83
2022/06/22 07:45:07;;;;;;;4.60;2.07;;;21.00;99.90;;;;;;5058254;28;20451;-83
2022/06/22 07:47:39;;;;;;;5.73;2.60;;;21.10;99.90;;;;;;5059279;28;20476;-83
2022/06/22 07:50:14;;;;;;;4.10;2.67;;;21.30;99.90;;;;;;5059385;28;20846;-83
2022/06/22 07:52:47;;;;;;;5.27;2.10;;;21.40;99.90;;;;;;5058811;28;20562;-83
2022/06/22 07:55:31;;;;;;;11.13;3.03;;;21.50;99.90;;;;;;5059724;28;20831;-82
2022/06/22 07:58:15;;;;;;;5.87;2.83;;;21.60;99.90;;;;;;5059649;28;20452;-80
2022/06/22 08:00:44;;;;;;;5.63;2.83;;;21.70;99.90;;;;;;5042113;28;20506;-83
2022/06/22 08:03:21;;;;;;;5.73;3.20;;;21.90;99.90;;;;;;5059647;28;20448;-82
2022/06/22 08:05:50;;;;;;;4.17;2.30;;;21.90;99.90;;;;;;5050550;28;20464;-81
2022/06/22 08:08:21;;;;;;;7.20;3.07;;;22.00;99.90;;;;;;5058192;28;20491;-83
2022/06/22 08:10:54;;;;;;;5.47;2.80;;;22.10;99.90;;;;;;5058929;28;21054;-83
2022/06/22 08:13:24;;;;;;;61.90;21.60;;;22.10;99.90;;;;;;5059819;28;20504;-85
2022/06/22 08:15:55;;;;;;;11.90;6.33;;;22.10;99.90;;;;;;5059698;28;20502;-82
2022/06/22 08:18:22;;;;;;;6.87;2.90;;;22.30;99.90;;;;;;5070209;28;20432;-80
2022/06/22 08:20:52;;;;;;;4.07;2.57;;;22.50;99.90;;;;;;5066454;28;20487;-82
2022/06/22 08:23:22;;;;;;;14.80;6.70;;;22.50;99.90;;;;;;5042045;28;20441;-84
2022/06/22 08:25:51;;;;;;;14.17;4.27;;;22.70;99.90;;;;;;5059066;28;20538;-84
2022/06/22 08:28:20;;;;;;;8.33;4.00;;;23.00;99.90;;;;;;5058667;28;20893;-83
2022/06/22 08:30:50;;;;;;;8.90;2.83;;;23.00;99.90;;;;;;5041862;28;20547;-81
2022/06/22 08:33:23;;;;;;;7.57;2.70;;;23.30;99.90;;;;;;5058341;28;20482;-83
2022/06/22 08:35:53;;;;;;;5.40;2.70;;;23.40;99.90;;;;;;5056138;28;20482;-83
2022/06/22 08:38:26;;;;;;;16.67;6.47;;;23.50;99.90;;;;;;5059473;28;20891;-83
2022/06/22 08:41:00;;;;;;;9.07;4.20;;;23.70;99.90;;;;;;5051887;28;20488;-84
2022/06/22 08:43:34;;;;;;;6.60;2.77;;;23.90;99.90;;;;;;5060725;28;20962;-83
2022/06/22 08:46:18;;;;;;;7.63;3.33;;;24.20;99.90;;;;;;5059739;28;20447;-82
2022/06/22 08:49:06;;;;;;;5.50;2.63;;;24.50;99.90;;;;;;5059488;28;20483;-83
2022/06/22 08:51:50;;;;;;;4.07;2.10;;;24.60;99.90;;;;;;5051598;28;20483;-83
2022/06/22 08:54:42;;;;;;;7.80;2.17;;;24.90;99.90;;;;;;5051054;28;20432;-83
2022/06/22 08:57:15;;;;;;;5.67;2.30;;;25.20;99.90;;;;;;5039051;28;20471;-83
2022/06/22 09:00:04;;;;;;;4.00;1.70;;;25.40;99.90;;;;;;5054354;28;21034;-82
2022/06/22 09:03:00;;;;;;;4.73;1.60;;;25.60;99.90;;;;;;5051364;28;20965;-81
2022/06/22 09:05:48;;;;;;;5.30;1.93;;;25.80;99.90;;;;;;5009166;28;20451;-82
2022/06/22 09:08:34;;;;;;;3.67;1.73;;;25.90;99.90;;;;;;5047941;28;20492;-83
2022/06/22 09:11:12;;;;;;;4.27;1.77;;;26.20;99.90;;;;;;5053479;28;20838;-80
2022/06/22 09:14:12;;;;;;;4.23;1.90;;;26.40;99.90;;;;;;5055020;28;21022;-84
2022/06/22 09:16:58;;;;;;;3.07;1.70;;;26.60;99.90;;;;;;5052582;28;20483;-82
2022/06/22 09:19:43;;;;;;;3.33;1.60;;;26.70;99.90;;;;;;5052051;28;20488;-83
2022/06/22 09:22:16;;;;;;;5.70;1.40;;;26.80;99.90;;;;;;5060408;28;20554;-82
2022/06/22 09:24:55;;;;;;;4.57;1.53;;;27.00;99.90;;;;;;5060419;28;20450;-81
2022/06/22 09:27:35;;;;;;;4.00;1.97;;;27.30;99.90;;;;;;5059666;28;20483;-81
2022/06/22 09:30:13;;;;;;;4.03;1.60;;;27.40;99.90;;;;;;5061807;28;20507;-82
2022/06/22 09:33:08;;;;;;;5.80;1.60;;;27.60;99.90;;;;;;5057152;28;20559;-81
2022/06/22 09:36:11;;;;;;;3.13;1.70;;;27.70;99.90;;;;;;5064477;28;20456;-80
2022/06/22 09:39:13;;;;;;;4.13;1.90;;;27.70;99.90;;;;;;5048326;28;20491;-81
2022/06/22 09:41:56;;;;;;;3.60;1.63;;;28.00;99.90;;;;;;5024175;28;20494;-82
2022/06/22 09:44:59;;;;;;;3.97;1.70;;;28.20;99.90;;;;;;5061167;28;20490;-81
2022/06/22 09:47:54;;;;;;;4.13;1.40;;;28.30;99.90;;;;;;5055612;28;20475;-83
2022/06/22 09:51:00;;;;;;;7.87;2.13;;;28.40;99.90;;;;;;5070182;28;20479;-82
2022/06/22 09:53:55;;;;;;;3.90;1.77;;;28.40;99.90;;;;;;5007836;28;20466;-83
2022/06/22 09:56:37;;;;;;;4.60;1.80;;;28.50;99.90;;;;;;5005962;28;20451;-82
2022/06/22 09:59:36;;;;;;;5.30;1.90;;;28.70;99.90;;;;;;5052678;28;20468;-82
2022/06/22 10:02:31;;;;;;;3.87;1.53;;;28.80;99.90;;;;;;5040910;28;20448;-83
2022/06/22 10:05:40;;;;;;;2.90;1.30;;;29.10;99.90;;;;;;5047799;28;20960;-82
2022/06/22 10:08:36;;;;;;;3.70;1.80;;;29.40;99.90;;;;;;5020165;28;20461;-83
2022/06/22 10:11:14;;;;;;;5.00;1.70;;;29.10;99.90;;;;;;5059089;28;20523;-83
2022/06/22 10:14:00;;;;;;;4.50;1.70;;;29.40;99.90;;;;;;5043901;28;20518;-83
2022/06/22 10:16:40;;;;;;;5.60;1.83;;;29.50;99.90;;;;;;5061877;28;20531;-83
2022/06/22 10:19:32;;;;;;;5.27;1.80;;;29.70;99.90;;;;;;5062187;28;20471;-84
2022/06/22 10:22:23;;;;;;;6.23;2.10;;;29.50;99.90;;;;;;5059321;28;20449;-81
2022/06/22 10:25:35;;;;;;;3.03;1.60;;;29.80;99.90;;;;;;5067259;28;20474;-84
2022/06/22 10:28:25;;;;;;;4.77;2.27;;;29.90;99.90;;;;;;5048866;28;20448;-83
2022/06/22 10:31:01;;;;;;;3.00;1.53;;;29.90;99.90;;;;;;5039671;28;20529;-82
2022/06/22 10:34:09;;;;;;;3.60;1.90;;;30.10;99.90;;;;;;5058277;28;20483;-83
2022/06/22 10:36:58;;;;;;;4.87;1.77;;;30.30;99.90;;;;;;5058511;28;20456;-84
2022/06/22 10:39:40;;;;;;;4.80;1.77;;;30.60;99.90;;;;;;5058505;28;20459;-83
2022/06/22 10:45:16;;;;;;;4.50;1.93;;;30.30;99.90;;;;;;5054839;28;20963;-83
2022/06/22 10:48:10;;;;;;;4.40;1.77;;;30.60;99.90;;;;;;5056820;28;20448;-84
2022/06/22 10:50:46;;;;;;;4.77;1.90;;;30.70;99.90;;;;;;5059941;28;20510;-85
2022/06/22 10:53:51;;;;;;;5.40;1.90;;;30.70;99.90;;;;;;5060468;28;21013;-83
2022/06/22 10:56:33;;;;;;;7.43;1.80;;;30.70;99.90;;;;;;5061628;28;20447;-84
2022/06/22 10:59:34;;;;;;;3.73;1.70;;;31.00;99.90;;;;;;5063567;28;20471;-84
2022/06/22 11:02:26;;;;;;;3.20;2.00;;;31.20;99.90;;;;;;5051396;28;20519;-84
2022/06/22 11:05:33;;;;;;;2.30;1.50;;;31.20;99.90;;;;;;5059619;28;20502;-84
2022/06/22 11:08:23;;;;;;;3.03;1.60;;;31.40;99.90;;;;;;5046673;28;20501;-83
2022/06/22 11:11:03;;;;;;;6.27;1.67;;;31.30;97.80;;;;;;5058628;28;20913;-85
2022/06/22 11:13:47;;;;;;;4.30;1.90;;;31.60;99.90;;;;;;5064235;28;20479;-86
2022/06/22 11:16:42;;;;;;;5.00;1.50;;;31.50;95.50;;;;;;5063642;28;20502;-85
2022/06/22 11:19:30;;;;;;;4.73;1.73;;;32.20;95.30;;;;;;5062549;28;20995;-83
2022/06/22 11:22:26;;;;;;;4.03;1.60;;;32.40;99.90;;;;;;5063024;28;20502;-83
2022/06/22 11:31:17;;;;;;;4.90;1.83;;;33.20;94.70;;;;;;5063364;28;20450;-83
2022/06/22 11:34:03;;;;;;;4.13;1.60;;;33.40;91.90;;;;;;5063387;28;20495;-84
2022/06/22 11:36:41;;;;;;;3.23;1.50;;;33.10;93.00;;;;;;5062903;28;20955;-85
2022/06/22 11:39:37;;;;;;;5.90;1.50;;;32.70;91.50;;;;;;5062532;28;20903;-84
2022/06/22 11:42:19;;;;;;;2.53;1.40;;;32.60;92.50;;;;;;5063589;28;20432;-85
2022/06/22 11:48:20;;;;;;;3.73;1.33;;;32.30;88.60;;;;;;5054337;28;20466;-85
2022/06/22 11:51:03;;;;;;;2.63;1.20;;;32.30;92.60;;;;;;5072193;28;20459;-84
2022/06/22 11:53:49;;;;;;;4.80;1.63;;;32.80;93.00;;;;;;5069990;28;21037;-84
2022/06/22 11:56:33;;;;;;;3.73;1.80;;;33.10;92.70;;;;;;5073644;28;20542;-84
2022/06/22 11:59:20;;;;;;;3.50;1.73;;;33.40;92.60;;;;;;5060863;28;20475;-85
2022/06/22 12:02:09;;;;;;;5.97;1.80;;;34.00;93.00;;;;;;5060564;28;20478;-85
2022/06/22 12:05:17;;;;;;;6.03;1.67;;;34.00;90.40;;;;;;5059787;28;20455;-86
2022/06/22 12:08:18;;;;;;;2.60;1.23;;;34.20;94.50;;;;;;4998200;28;20462;-85
2022/06/22 12:10:51;;;;;;;5.33;1.60;;;34.50;90.90;;;;;;5040630;22;20517;-82
2022/06/22 12:16:53;;;;;;;5.50;1.60;;;34.50;90.50;;;;;;5024576;28;20482;-82
2022/06/22 12:19:32;;;;;;;3.30;1.50;;;34.50;91.60;;;;;;5070926;28;20486;-81
2022/06/22 12:22:14;;;;;;;5.60;1.67;;;34.60;81.50;;;;;;5074152;28;20551;-82
2022/06/22 12:24:55;;;;;;;3.87;1.40;;;34.40;86.20;;;;;;5069891;28;20444;-81
2022/06/22 12:27:27;;;;;;;2.60;1.40;;;34.50;88.20;;;;;;5071421;28;20456;-82
2022/06/22 12:30:19;;;;;;;4.50;1.30;;;34.60;84.20;;;;;;5076462;28;20425;-81
2022/06/22 12:32:51;;;;;;;4.10;1.23;;;34.40;78.20;;;;;;5061297;28;20495;-81
2022/06/22 12:35:32;;;;;;;3.40;1.40;;;34.40;80.80;;;;;;5076851;28;20423;-82
2022/06/22 12:38:02;;;;;;;3.60;1.50;;;34.60;79.00;;;;;;5077323;28;20452;-80
2022/06/22 12:40:50;;;;;;;2.87;1.20;;;34.80;79.40;;;;;;5076956;28;20559;-81
2022/06/22 12:43:45;;;;;;;4.57;1.50;;;34.90;79.30;;;;;;5076687;28;20514;-81
2022/06/22 12:46:23;;;;;;;3.33;1.50;;;35.00;82.40;;;;;;5069850;28;20448;-81
2022/06/22 12:49:14;;;;;;;2.97;1.10;;;35.20;78.40;;;;;;5068223;28;20444;-80
2022/06/22 12:51:47;;;;;;;7.67;1.30;;;35.30;79.20;;;;;;5068774;28;20531;-81
2022/06/22 12:54:19;;;;;;;3.30;1.50;;;35.10;85.20;;;;;;5068701;28;20480;-81
2022/06/22 12:56:52;;;;;;;2.47;1.40;;;35.30;79.60;;;;;;5064556;28;20444;-82
2022/06/22 12:59:26;;;;;;;2.60;1.40;;;35.30;77.10;;;;;;5065652;28;20817;-79
2022/06/22 13:01:53;;;;;;;3.60;1.37;;;35.50;77.60;;;;;;5067283;28;20473;-81
2022/06/22 13:04:24;;;;;;;4.37;1.43;;;35.70;79.70;;;;;;5068221;28;20448;-81
2022/06/22 13:06:55;;;;;;;3.23;1.40;;;35.60;79.30;;;;;;5050592;28;20455;-79
2022/06/22 13:09:24;;;;;;;3.70;1.80;;;35.60;76.90;;;;;;5065888;28;20548;-81
2022/06/22 13:11:52;;;;;;;4.13;1.53;;;35.60;73.80;;;;;;5066860;28;20479;-82
2022/06/22 13:14:32;;;;;;;5.00;1.80;;;35.50;74.60;;;;;;5062538;28;20579;-81
2022/06/22 13:17:17;;;;;;;3.20;1.40;;;35.50;74.60;;;;;;5067047;28;20511;-82
2022/06/22 13:19:57;;;;;;;3.33;1.47;;;35.60;78.00;;;;;;5066166;28;20439;-82
2022/06/22 13:22:32;;;;;;;3.53;1.30;;;35.80;71.20;;;;;;5063186;28;20479;-82
2022/06/22 13:25:08;;;;;;;2.47;1.00;;;36.00;77.10;;;;;;5059733;28;20483;-81
2022/06/22 13:27:47;;;;;;;3.47;1.50;;;35.90;64.90;;;;;;5060551;28;20474;-81
2022/06/22 13:30:20;;;;;;;4.97;1.50;;;36.30;73.60;;;;;;5060265;28;20478;-81
2022/06/22 13:32:56;;;;;;;4.47;1.50;;;36.20;73.10;;;;;;5060373;28;20881;-80
2022/06/22 13:35:32;;;;;;;4.53;1.43;;;36.40;67.70;;;;;;5060796;28;20476;-80
2022/06/22 13:38:17;;;;;;;2.50;1.30;;;36.70;67.80;;;;;;5056694;28;20455;-81
2022/06/22 13:41:06;;;;;;;4.00;1.17;;;36.50;66.40;;;;;;5057787;28;20495;-81
2022/06/22 13:43:58;;;;;;;3.33;1.43;;;36.80;69.20;;;;;;5057827;28;20501;-80
2022/06/22 13:46:47;;;;;;;4.63;1.80;;;36.90;65.40;;;;;;5055672;28;20971;-79
2022/06/22 13:49:26;;;;;;;5.13;1.47;;;36.90;66.60;;;;;;5054131;28;20515;-80
2022/06/22 13:52:22;;;;;;;3.40;1.23;;;37.10;71.80;;;;;;5057549;28;20498;-81
2022/06/22 13:55:23;;;;;;;5.20;1.87;;;37.30;71.00;;;;;;5057847;28;20489;-82
2022/06/22 13:57:57;;;;;;;2.97;1.20;;;37.30;70.60;;;;;;5061773;28;20491;-80
2022/06/22 14:00:30;;;;;;;3.83;1.50;;;37.20;67.40;;;;;;5059000;28;20456;-81
2022/06/22 14:03:14;;;;;;;2.43;1.30;;;37.40;65.80;;;;;;5061153;28;20467;-79